createdAt,value
2024-02-02T00:02:00.244Z,17.88
2024-02-02T00:04:28.300Z,18.98
2024-02-02T00:06:56.867Z,18.73
2024-02-02T00:09:25.167Z,18.38
2024-02-02T00:11:53.636Z,19.00
2024-02-02T00:14:21.684Z,18.27
2024-02-02T00:16:50.073Z,18.08
2024-02-02T00:19:20.003Z,18.17
2024-02-02T00:21:48.443Z,18.40
2024-02-02T00:24:16.406Z,17.67
2024-02-02T00:26:44.909Z,17.35
2024-02-02T00:29:13.294Z,18.35
2024-02-02T00:31:42.328Z,17.20
2024-02-02T00:34:10.462Z,17.23
2024-02-02T00:36:38.816Z,18.25
2024-02-02T00:39:06.907Z,16.55
2024-02-02T00:41:35.260Z,17.30
2024-02-02T00:44:04.911Z,17.90
2024-02-02T00:46:34.080Z,17.10
2024-02-02T00:49:03.841Z,17.45
2024-02-02T00:51:32.812Z,15.95
2024-02-02T00:54:01.026Z,16.67
2024-02-02T00:56:29.578Z,16.70
2024-02-02T00:58:57.519Z,16.25
2024-02-02T01:01:26.310Z,16.88
2024-02-02T01:03:54.247Z,16.05
2024-02-02T01:06:22.855Z,15.68
2024-02-02T01:08:50.901Z,15.90
2024-02-02T01:11:20.646Z,15.48
2024-02-02T01:13:48.741Z,16.58
2024-02-02T01:16:17.012Z,16.17
2024-02-02T01:18:45.079Z,15.93
2024-02-02T01:21:13.434Z,16.52
2024-02-02T01:23:41.364Z,16.67
2024-02-02T01:26:09.656Z,15.93
2024-02-02T01:28:37.832Z,15.77
2024-02-02T01:31:06.142Z,16.00
2024-02-02T01:33:34.201Z,16.70
2024-02-02T01:36:04.035Z,16.55
2024-02-02T01:38:32.135Z,15.73
2024-02-02T01:41:00.877Z,16.15
2024-02-02T01:43:29.127Z,16.33
2024-02-02T01:45:57.625Z,15.85
2024-02-02T01:48:27.172Z,16.50
2024-02-02T01:50:55.716Z,17.20
2024-02-02T01:53:24.178Z,16.20
2024-02-02T01:55:52.718Z,15.95
2024-02-02T01:58:21.336Z,15.60
2024-02-02T02:00:49.944Z,16.50
2024-02-02T02:03:18.643Z,16.10
2024-02-02T02:05:47.093Z,16.02
2024-02-02T02:08:15.257Z,16.30
2024-02-02T02:10:46.606Z,16.38
2024-02-02T02:13:15.249Z,16.30
2024-02-02T02:15:43.753Z,15.85
2024-02-02T02:18:11.899Z,16.50
2024-02-02T02:20:53.916Z,16.73
2024-02-02T02:23:21.988Z,16.88
2024-02-02T02:25:50.587Z,16.08
2024-02-02T02:28:18.766Z,15.85
2024-02-02T02:30:47.698Z,16.17
2024-02-02T02:33:16.023Z,15.98
2024-02-02T02:35:44.928Z,16.98
2024-02-02T02:38:12.928Z,15.90
2024-02-02T02:40:41.205Z,17.00
2024-02-02T02:43:09.208Z,16.67
2024-02-02T02:45:37.697Z,16.60
2024-02-02T02:48:06.307Z,15.50
2024-02-02T02:50:34.683Z,16.85
2024-02-02T02:53:02.736Z,16.25
2024-02-02T02:55:31.280Z,17.15
2024-02-02T02:57:59.584Z,17.38
2024-02-02T03:00:29.808Z,16.38
2024-02-02T03:02:57.924Z,16.60
2024-02-02T03:05:31.296Z,16.73
2024-02-02T03:07:59.389Z,15.70
2024-02-02T03:10:27.894Z,16.60
2024-02-02T03:12:56.339Z,16.33
2024-02-02T03:15:25.380Z,16.52
2024-02-02T03:17:53.676Z,16.45
2024-02-02T03:20:24.021Z,16.40
2024-02-02T03:22:52.108Z,16.00
2024-02-02T03:25:20.489Z,15.77
2024-02-02T03:27:48.619Z,15.70
2024-02-02T03:30:17.181Z,16.02
2024-02-02T03:32:46.038Z,14.95
2024-02-02T03:35:14.813Z,15.82
2024-02-02T03:37:42.893Z,15.90
2024-02-02T03:40:12.445Z,15.18
2024-02-02T03:42:40.441Z,15.60
2024-02-02T03:45:09.182Z,16.00
2024-02-02T03:47:37.659Z,15.63
2024-02-02T03:50:06.287Z,15.50
2024-02-02T03:52:34.352Z,15.77
2024-02-02T03:55:02.907Z,15.80
2024-02-02T03:57:33.674Z,15.75
2024-02-02T04:00:02.456Z,15.65
2024-02-02T04:02:40.979Z,13.65
2024-02-02T04:05:09.736Z,14.90
2024-02-02T04:07:37.593Z,16.20
2024-02-02T04:10:07.010Z,16.13
2024-02-02T04:12:35.109Z,18.25
2024-02-02T04:15:03.968Z,15.80
2024-02-02T04:17:33.890Z,15.40
2024-02-02T04:20:02.401Z,14.80
2024-02-02T04:22:31.585Z,15.95
2024-02-02T04:25:00.075Z,15.82
2024-02-02T04:27:28.347Z,15.63
2024-02-02T04:29:56.803Z,15.20
2024-02-02T04:32:24.804Z,16.50
2024-02-02T04:34:53.167Z,15.98
2024-02-02T04:37:21.324Z,15.70
2024-02-02T04:39:49.975Z,15.73
2024-02-02T04:42:18.133Z,15.48
2024-02-02T04:44:46.480Z,15.88
2024-02-02T04:47:14.525Z,14.75
2024-02-02T04:49:42.950Z,15.50
2024-02-02T04:52:11.058Z,15.65
2024-02-02T04:54:39.557Z,14.98
2024-02-02T04:57:07.511Z,15.13
2024-02-02T04:59:35.768Z,15.48
2024-02-02T05:02:06.620Z,16.15
2024-02-02T05:04:35.954Z,15.98
2024-02-02T05:07:03.991Z,15.52
2024-02-02T05:09:32.359Z,15.88
2024-02-02T05:12:00.359Z,16.80
2024-02-02T05:14:28.716Z,16.08
2024-02-02T05:16:57.473Z,14.55
2024-02-02T05:19:26.366Z,15.35
2024-02-02T05:21:54.681Z,15.52
2024-02-02T05:24:36.965Z,16.38
2024-02-02T05:27:12.412Z,15.02
2024-02-02T05:29:41.234Z,14.88
2024-02-02T05:32:09.239Z,16.02
2024-02-02T05:34:37.719Z,16.30
2024-02-02T05:37:05.786Z,16.33
2024-02-02T05:39:36.676Z,17.30
2024-02-02T05:42:05.304Z,16.77
2024-02-02T05:44:33.565Z,15.48
2024-02-02T05:47:03.970Z,16.73
2024-02-02T05:49:32.439Z,16.10
2024-02-02T05:52:04.153Z,15.75
2024-02-02T05:54:33.327Z,16.27
2024-02-02T05:57:01.421Z,16.88
2024-02-02T05:59:29.970Z,16.63
2024-02-02T06:01:57.947Z,17.35
2024-02-02T06:04:26.607Z,19.40
2024-02-02T06:06:54.997Z,18.65
2024-02-02T06:09:25.638Z,17.60
2024-02-02T06:11:53.847Z,18.27
2024-02-02T06:14:21.732Z,21.80
2024-02-02T06:16:50.642Z,28.35
2024-02-02T06:19:18.748Z,19.40
2024-02-02T06:21:47.098Z,25.85
2024-02-02T06:24:15.215Z,19.98
2024-02-02T06:26:43.562Z,19.60
2024-02-02T06:29:11.503Z,19.50
2024-02-02T06:31:39.905Z,18.60
2024-02-02T06:34:07.966Z,18.45
2024-02-02T06:36:36.609Z,18.65
2024-02-02T06:39:04.650Z,18.13
2024-02-02T06:41:33.413Z,19.02
2024-02-02T06:44:01.460Z,19.55
2024-02-02T06:46:29.740Z,18.20
2024-02-02T06:48:57.993Z,18.80
2024-02-02T06:51:26.415Z,18.55
2024-02-02T06:53:57.110Z,18.65
2024-02-02T06:56:37.479Z,18.60
2024-02-02T06:59:07.013Z,18.48
2024-02-02T07:01:36.437Z,19.52
2024-02-02T07:04:08.595Z,18.85
2024-02-02T07:06:37.301Z,19.92
2024-02-02T07:09:20.685Z,19.02
2024-02-02T07:12:10.747Z,18.73
2024-02-02T07:14:44.857Z,18.92
2024-02-02T07:17:36.339Z,21.92
2024-02-02T07:20:11.213Z,18.60
2024-02-02T07:22:44.888Z,19.10
2024-02-02T07:25:14.989Z,18.73
2024-02-02T07:27:51.297Z,19.33
2024-02-02T07:33:36.945Z,18.15
2024-02-02T07:36:06.456Z,17.65
2024-02-02T07:38:48.221Z,18.85
2024-02-02T07:41:18.975Z,17.60
2024-02-02T07:43:48.898Z,16.48
2024-02-02T07:46:17.482Z,16.45
2024-02-02T07:48:48.661Z,16.50
2024-02-02T07:51:20.108Z,16.02
2024-02-02T07:53:48.530Z,16.90
2024-02-02T07:56:19.393Z,16.27
2024-02-02T07:58:47.839Z,17.58
2024-02-02T08:01:16.611Z,16.05
2024-02-02T08:03:45.711Z,16.90
2024-02-02T08:06:15.093Z,16.60
2024-02-02T08:08:43.502Z,15.85
2024-02-02T08:11:11.361Z,16.75
2024-02-02T08:13:39.820Z,15.73
2024-02-02T08:16:07.968Z,15.63
2024-02-02T08:18:37.808Z,15.77
2024-02-02T08:21:06.477Z,14.88
2024-02-02T08:23:35.724Z,18.02
2024-02-02T08:26:03.750Z,19.10
2024-02-02T08:28:41.554Z,17.52
2024-02-02T08:31:16.911Z,16.23
2024-02-02T08:33:45.308Z,16.45
2024-02-02T08:36:13.744Z,16.80
2024-02-02T08:38:42.247Z,15.35
2024-02-02T08:41:11.511Z,15.93
2024-02-02T08:43:41.427Z,16.08
2024-02-02T08:46:12.207Z,14.52
2024-02-02T08:48:47.205Z,17.15
2024-02-02T08:51:25.163Z,18.65
2024-02-02T08:54:00.206Z,14.73
2024-02-02T08:56:28.685Z,14.90
2024-02-02T08:58:58.523Z,14.15
2024-02-02T09:01:43.935Z,11.65
2024-02-02T09:04:53.284Z,11.43
2024-02-02T09:07:21.470Z,10.70
2024-02-02T09:09:50.016Z,10.63
2024-02-02T09:12:19.550Z,10.00
2024-02-02T09:14:48.128Z,9.70
2024-02-02T09:17:16.078Z,9.90
2024-02-02T09:19:47.247Z,9.77
2024-02-02T09:22:19.328Z,9.93
2024-02-02T09:24:51.469Z,9.77
2024-02-02T09:27:33.768Z,9.57
2024-02-02T09:30:06.242Z,10.30
2024-02-02T09:32:34.450Z,9.32
2024-02-02T09:35:04.417Z,10.32
2024-02-02T09:37:51.047Z,9.90
2024-02-02T09:43:59.033Z,11.32
2024-02-02T09:47:09.070Z,10.20
2024-02-02T09:49:49.088Z,10.52
2024-02-02T09:52:33.259Z,10.73
2024-02-02T09:55:44.793Z,9.90
2024-02-02T09:58:33.942Z,10.07
2024-02-02T10:01:24.632Z,9.90
2024-02-02T10:04:27.511Z,9.50
2024-02-02T10:07:14.225Z,9.35
2024-02-02T10:10:12.042Z,10.07
2024-02-02T10:12:58.149Z,10.80
2024-02-02T10:15:43.117Z,9.98
2024-02-02T10:18:30.831Z,10.70
2024-02-02T10:21:12.561Z,10.48
2024-02-02T10:24:15.357Z,11.05
2024-02-02T10:27:02.394Z,10.63
2024-02-02T10:30:17.586Z,9.90
2024-02-02T10:33:14.930Z,9.27
2024-02-02T10:38:51.496Z,9.23
2024-02-02T10:41:40.873Z,10.05
2024-02-02T10:44:29.189Z,10.05
2024-02-02T10:47:03.792Z,10.98
2024-02-02T10:49:49.587Z,10.82
2024-02-02T10:52:29.742Z,10.07
2024-02-02T10:55:08.226Z,9.82
2024-02-02T10:57:54.084Z,10.30
2024-02-02T11:00:26.801Z,10.70
2024-02-02T11:03:33.148Z,11.13
2024-02-02T11:06:15.677Z,10.63
2024-02-02T11:08:55.642Z,10.02
2024-02-02T11:11:28.998Z,10.80
2024-02-02T11:14:34.735Z,11.13
2024-02-02T11:17:50.604Z,10.45
2024-02-02T11:21:02.167Z,10.93
2024-02-02T11:23:49.393Z,11.52
2024-02-02T11:26:26.579Z,12.20
2024-02-02T11:29:17.167Z,11.55
2024-02-02T11:31:48.638Z,11.45
2024-02-02T11:34:36.262Z,12.77
2024-02-02T11:37:32.809Z,11.10
2024-02-02T11:40:07.853Z,12.23
2024-02-02T11:42:40.987Z,11.75
2024-02-02T11:45:13.695Z,11.07
2024-02-02T11:47:51.567Z,12.02
2024-02-02T11:50:24.319Z,11.02
2024-02-02T11:53:05.433Z,11.82
2024-02-02T11:56:04.916Z,12.00
2024-02-02T11:58:38.144Z,11.43
2024-02-02T12:01:25.040Z,11.55
2024-02-02T12:06:34.993Z,10.43
2024-02-02T12:09:26.975Z,11.38
2024-02-02T12:11:57.650Z,10.93
2024-02-02T12:14:34.329Z,11.82
2024-02-02T12:17:03.655Z,11.30
2024-02-02T12:19:33.024Z,11.30
2024-02-02T12:22:01.706Z,10.77
2024-02-02T12:24:30.157Z,10.77
2024-02-02T12:26:59.705Z,12.10
2024-02-02T12:29:27.856Z,11.95
2024-02-02T12:31:56.714Z,10.93
2024-02-02T12:34:25.961Z,11.20
2024-02-02T12:36:54.524Z,11.23
2024-02-02T12:39:23.201Z,9.40
2024-02-02T12:41:52.693Z,9.57
2024-02-02T12:44:21.599Z,8.40
2024-02-02T12:46:50.375Z,9.25
2024-02-02T12:49:19.765Z,15.65
2024-02-02T12:51:50.006Z,7.95
2024-02-02T12:54:18.129Z,7.53
2024-02-02T12:56:46.509Z,8.18
2024-02-02T12:59:19.688Z,9.10
2024-02-02T13:01:49.507Z,9.15
2024-02-02T13:04:18.709Z,10.05
2024-02-02T13:06:47.381Z,10.40
2024-02-02T13:09:25.613Z,9.80
2024-02-02T13:11:59.444Z,9.57
2024-02-02T13:14:37.419Z,10.45
2024-02-02T13:17:07.512Z,10.25
2024-02-02T13:19:47.192Z,9.90
2024-02-02T13:22:28.160Z,10.15
2024-02-02T13:25:00.188Z,10.50
2024-02-02T13:27:32.380Z,10.57
2024-02-02T13:30:04.179Z,10.18
2024-02-02T13:32:53.822Z,10.15
2024-02-02T13:35:27.272Z,11.15
2024-02-02T13:37:56.598Z,10.00
2024-02-02T13:40:32.013Z,9.55
2024-02-02T13:43:01.300Z,9.97
2024-02-02T13:45:31.861Z,9.45
2024-02-02T13:48:04.925Z,9.52
2024-02-02T13:50:52.058Z,9.80
2024-02-02T13:53:25.059Z,9.65
2024-02-02T13:55:53.547Z,9.93
2024-02-02T13:58:23.396Z,9.77
2024-02-02T14:00:51.461Z,9.65
2024-02-02T14:03:22.862Z,10.30
2024-02-02T14:05:51.259Z,9.90
2024-02-02T14:08:20.562Z,9.73
2024-02-02T14:10:51.836Z,9.77
2024-02-02T14:13:21.833Z,9.77
2024-02-02T14:15:53.870Z,9.85
2024-02-02T14:18:24.747Z,19.08
2024-02-02T14:20:53.004Z,16.13
2024-02-02T14:23:23.202Z,18.13
2024-02-02T14:25:51.627Z,8.98
2024-02-02T14:28:21.033Z,13.68
2024-02-02T14:30:49.338Z,11.93
2024-02-02T14:33:25.396Z,12.95
2024-02-02T14:35:58.093Z,11.82
2024-02-02T14:38:26.711Z,16.23
2024-02-02T14:40:55.458Z,15.27
2024-02-02T14:43:23.904Z,16.58
2024-02-02T14:45:51.905Z,11.23
2024-02-02T14:48:20.898Z,9.73
2024-02-02T14:50:49.080Z,9.95
2024-02-02T14:53:17.550Z,9.80
2024-02-02T14:55:45.886Z,10.68
2024-02-02T14:58:14.964Z,9.65
2024-02-02T15:00:46.558Z,10.50
2024-02-02T15:03:15.520Z,10.60
2024-02-02T15:05:44.276Z,10.52
2024-02-02T15:08:13.593Z,11.43
2024-02-02T15:10:42.456Z,11.45
2024-02-02T15:13:12.005Z,10.77
2024-02-02T15:15:40.162Z,11.60
2024-02-02T15:18:09.511Z,13.52
2024-02-02T15:20:39.787Z,14.00
2024-02-02T15:23:08.490Z,13.88
2024-02-02T15:25:36.564Z,12.43
2024-02-02T15:28:05.641Z,11.85
2024-02-02T15:30:33.668Z,11.07
2024-02-02T15:33:02.337Z,11.57
2024-02-02T15:35:30.384Z,11.88
2024-02-02T15:37:58.849Z,12.07
2024-02-02T15:40:26.810Z,10.73
2024-02-02T15:42:56.492Z,11.88
2024-02-02T15:45:24.672Z,11.10
2024-02-02T15:47:53.313Z,11.57
2024-02-02T15:50:21.441Z,12.13
2024-02-02T15:52:49.897Z,12.00
2024-02-02T15:55:18.541Z,12.23
2024-02-02T15:57:52.634Z,10.70
2024-02-02T16:00:21.317Z,9.90
2024-02-02T16:02:50.174Z,12.00
2024-02-02T16:05:19.445Z,10.75
2024-02-02T16:07:47.816Z,12.07
2024-02-02T16:10:17.782Z,15.98
2024-02-02T16:12:46.845Z,13.38
2024-02-02T16:15:15.079Z,13.50
2024-02-02T16:17:43.751Z,14.15
2024-02-02T16:20:12.671Z,11.90
2024-02-02T16:22:42.955Z,11.98
2024-02-02T16:25:13.838Z,12.88
2024-02-02T16:27:43.007Z,14.40
2024-02-02T16:30:13.946Z,15.80
2024-02-02T16:32:42.423Z,13.27
2024-02-02T16:35:10.677Z,9.95
2024-02-02T16:37:40.956Z,10.73
2024-02-02T16:40:10.936Z,13.95
2024-02-02T16:42:44.442Z,13.55
2024-02-02T16:45:14.570Z,14.00
2024-02-02T16:47:43.140Z,12.43
2024-02-02T16:50:11.296Z,11.93
2024-02-02T16:52:40.592Z,11.63
2024-02-02T16:55:08.783Z,11.32
2024-02-02T16:57:39.989Z,11.63
2024-02-02T17:00:09.964Z,12.07
2024-02-02T17:02:40.065Z,10.43
2024-02-02T17:05:08.356Z,10.95
2024-02-02T17:07:37.031Z,10.95
2024-02-02T17:10:06.007Z,11.82
2024-02-02T17:12:34.448Z,9.70
2024-02-02T17:15:05.022Z,9.63
2024-02-02T17:17:34.418Z,9.38
2024-02-02T17:20:06.878Z,9.50
2024-02-02T17:22:44.114Z,10.18
2024-02-02T17:25:13.281Z,10.35
2024-02-02T17:27:42.858Z,11.88
2024-02-02T17:30:15.802Z,12.38
2024-02-02T17:32:44.654Z,10.95
2024-02-02T17:35:12.823Z,11.25
2024-02-02T17:37:44.447Z,11.52
2024-02-02T17:40:14.354Z,11.55
2024-02-02T17:42:43.742Z,12.80
2024-02-02T17:45:11.879Z,12.20
2024-02-02T17:47:41.385Z,11.82
2024-02-02T17:50:10.790Z,12.23
2024-02-02T17:52:39.462Z,11.48
2024-02-02T17:55:07.885Z,10.55
2024-02-02T17:57:36.693Z,12.73
2024-02-02T18:00:06.929Z,12.70
2024-02-02T18:02:40.635Z,13.98
2024-02-02T18:05:09.731Z,14.18
2024-02-02T18:07:47.016Z,13.55
2024-02-02T18:10:16.646Z,12.45
2024-02-02T18:12:48.802Z,12.80
2024-02-02T18:15:20.173Z,12.70
2024-02-02T18:17:48.655Z,10.38
2024-02-02T18:20:16.675Z,11.38
2024-02-02T18:22:45.673Z,10.75
2024-02-02T18:25:13.634Z,10.60
2024-02-02T18:27:42.018Z,11.30
2024-02-02T18:30:10.655Z,10.95
2024-02-02T18:32:39.471Z,10.40
2024-02-02T18:35:08.762Z,10.52
2024-02-02T18:37:37.773Z,11.45
2024-02-02T18:40:06.242Z,11.15
2024-02-02T18:42:34.647Z,10.30
2024-02-02T18:45:02.925Z,10.85
2024-02-02T18:47:32.807Z,9.50
2024-02-02T18:50:00.918Z,10.93
2024-02-02T18:52:31.351Z,10.55
2024-02-02T18:54:59.422Z,10.20
2024-02-02T18:57:27.758Z,10.55
2024-02-02T18:59:55.835Z,10.23
2024-02-02T19:02:24.096Z,11.57
2024-02-02T19:04:54.248Z,10.43
2024-02-02T19:07:22.806Z,10.73
2024-02-02T19:09:50.887Z,11.40
2024-02-02T19:12:19.830Z,11.60
2024-02-02T19:14:47.895Z,10.88
2024-02-02T19:17:18.692Z,10.13
2024-02-02T19:19:47.146Z,10.20
2024-02-02T19:22:15.548Z,9.35
2024-02-02T19:24:47.444Z,9.60
2024-02-02T19:27:15.961Z,9.38
2024-02-02T19:29:43.954Z,9.73
2024-02-02T19:32:14.514Z,8.57
2024-02-02T19:34:42.925Z,9.38
2024-02-02T19:37:12.056Z,9.35
2024-02-02T19:39:41.226Z,9.43
2024-02-02T19:42:09.536Z,9.10
2024-02-02T19:44:37.843Z,9.27
2024-02-02T19:47:06.595Z,9.10
2024-02-02T19:49:35.241Z,8.60
2024-02-02T19:52:03.859Z,8.73
2024-02-02T19:54:34.309Z,8.52
2024-02-02T19:57:06.464Z,8.90
2024-02-02T19:59:34.542Z,7.20
2024-02-02T20:02:05.801Z,7.97
2024-02-02T20:04:34.214Z,7.93
2024-02-02T20:07:02.736Z,7.50
2024-02-02T20:09:31.691Z,7.50
2024-02-02T20:12:00.116Z,7.43
2024-02-02T20:14:28.063Z,7.07
2024-02-02T20:16:56.316Z,7.07
2024-02-02T20:19:26.557Z,7.53
2024-02-02T20:21:55.060Z,7.22
2024-02-02T20:24:23.094Z,6.95
2024-02-02T20:26:51.559Z,7.07
2024-02-02T20:29:21.927Z,6.65
2024-02-02T20:31:51.879Z,6.78
2024-02-02T20:34:19.889Z,7.00
2024-02-02T20:36:48.503Z,7.22
2024-02-02T20:39:16.468Z,7.28
2024-02-02T20:41:45.439Z,6.85
2024-02-02T20:44:13.397Z,6.90
2024-02-02T20:46:44.776Z,6.53
2024-02-02T20:49:16.027Z,6.22
2024-02-02T20:51:44.957Z,7.18
2024-02-02T20:54:14.258Z,6.97
2024-02-02T20:56:44.089Z,6.65
2024-02-02T20:59:12.093Z,6.88
2024-02-02T21:01:40.668Z,6.53
2024-02-02T21:04:08.884Z,7.07
2024-02-02T21:06:43.711Z,7.13
2024-02-02T21:09:12.115Z,6.90
2024-02-02T21:11:40.437Z,6.70
2024-02-02T21:14:09.051Z,6.80
2024-02-02T21:16:37.804Z,6.80
2024-02-02T21:19:07.582Z,7.00
2024-02-02T21:21:38.189Z,6.93
2024-02-02T21:24:06.700Z,6.97
2024-02-02T21:26:35.222Z,7.80
2024-02-02T21:29:03.470Z,7.03
2024-02-02T21:31:31.798Z,7.30
2024-02-02T21:34:00.081Z,7.22
2024-02-02T21:36:29.132Z,7.72
2024-02-02T21:38:58.773Z,8.40
2024-02-02T21:41:27.440Z,8.40
2024-02-02T21:43:55.526Z,7.60
2024-02-02T21:46:24.007Z,8.35
2024-02-02T21:48:52.219Z,8.52
2024-02-02T21:51:20.965Z,8.93
2024-02-02T21:53:49.191Z,8.10
2024-02-02T21:56:17.714Z,8.75
2024-02-02T21:58:46.392Z,8.20
2024-02-02T22:01:15.789Z,8.57
2024-02-02T22:03:44.213Z,9.02
2024-02-02T22:06:14.318Z,8.55
2024-02-02T22:08:42.332Z,8.52
2024-02-02T22:11:11.526Z,9.23
2024-02-02T22:13:39.583Z,9.48
2024-02-02T22:16:12.903Z,9.48
2024-02-02T22:18:41.217Z,10.05
2024-02-02T22:21:10.313Z,9.68
2024-02-02T22:23:38.923Z,9.35
2024-02-02T22:26:07.378Z,10.23
2024-02-02T22:28:36.844Z,9.98
2024-02-02T22:31:06.339Z,9.35
2024-02-02T22:33:34.719Z,9.93
2024-02-02T22:36:03.306Z,9.82
2024-02-02T22:38:31.704Z,9.38
2024-02-02T22:41:07.396Z,9.48
2024-02-02T22:43:42.867Z,8.30
2024-02-02T22:46:11.368Z,8.48
2024-02-02T22:48:39.731Z,9.15
2024-02-02T22:51:08.401Z,8.23
2024-02-02T22:53:36.749Z,8.30
2024-02-02T22:56:05.897Z,8.02
2024-02-02T22:58:41.511Z,8.38
2024-02-02T23:01:10.104Z,8.35
2024-02-02T23:03:38.279Z,7.68
2024-02-02T23:06:07.407Z,7.38
2024-02-02T23:08:35.588Z,7.57
2024-02-02T23:11:04.060Z,8.10
2024-02-02T23:13:32.045Z,8.07
2024-02-02T23:16:00.728Z,8.00
2024-02-02T23:18:31.015Z,7.43
2024-02-02T23:21:01.047Z,7.40
2024-02-02T23:23:30.376Z,7.20
2024-02-02T23:25:58.624Z,8.38
2024-02-02T23:28:29.515Z,7.70
2024-02-02T23:31:01.703Z,7.95
2024-02-02T23:33:30.434Z,8.02
2024-02-02T23:35:59.300Z,8.05
2024-02-02T23:38:27.358Z,8.25
2024-02-02T23:41:21.070Z,7.35
2024-02-02T23:43:49.196Z,7.70
2024-02-02T23:46:17.616Z,8.52
2024-02-02T23:48:46.710Z,8.90
2024-02-02T23:51:15.317Z,8.70
2024-02-02T23:53:43.541Z,8.75
2024-02-02T23:56:11.946Z,7.80
2024-02-02T23:58:40.186Z,8.23
